createdAt,value
2023-04-06T00:01:41.161Z,1.31
2023-04-06T00:04:10.043Z,1.25
2023-04-06T00:06:37.769Z,1.29
2023-04-06T00:09:05.582Z,1.20
2023-04-06T00:11:33.624Z,1.41
2023-04-06T00:14:01.790Z,1.35
2023-04-06T00:16:30.702Z,1.48
2023-04-06T00:18:58.862Z,1.46
2023-04-06T00:21:26.685Z,1.60
2023-04-06T00:23:54.446Z,1.45
2023-04-06T00:26:22.520Z,1.14
2023-04-06T00:28:50.894Z,0.99
2023-04-06T00:31:18.733Z,0.78
2023-04-06T00:33:46.754Z,0.69
2023-04-06T00:36:14.594Z,0.63
2023-04-06T00:38:42.604Z,0.57
2023-04-06T00:41:11.017Z,0.57
2023-04-06T00:43:38.786Z,0.62
2023-04-06T00:46:06.643Z,0.55
2023-04-06T00:48:34.716Z,0.56
2023-04-06T00:51:02.551Z,0.80
2023-04-06T00:53:30.238Z,0.60
2023-04-06T00:55:59.570Z,0.61
2023-04-06T00:58:27.462Z,0.36
2023-04-06T01:00:56.004Z,0.42
2023-04-06T01:03:24.367Z,0.34
2023-04-06T01:05:52.659Z,0.22
2023-04-06T01:08:20.647Z,0.22
2023-04-06T01:10:49.355Z,0.19
2023-04-06T01:13:19.592Z,0.11
2023-04-06T01:15:48.347Z,0.13
2023-04-06T01:18:17.094Z,0.26
2023-04-06T01:20:45.550Z,0.17
2023-04-06T01:23:14.075Z,0.28
2023-04-06T01:25:45.763Z,0.23
2023-04-06T01:28:13.747Z,0.29
2023-04-06T01:30:43.388Z,0.32
2023-04-06T01:33:11.692Z,0.35
2023-04-06T01:35:40.072Z,0.38
2023-04-06T01:38:09.046Z,0.27
2023-04-06T01:40:37.428Z,0.44
2023-04-06T01:43:05.373Z,0.40
2023-04-06T01:45:33.486Z,0.34
2023-04-06T01:48:02.154Z,0.13
2023-04-06T01:50:30.229Z,0.08
2023-04-06T01:52:58.583Z,0.05
2023-04-06T01:55:27.298Z,0.07
2023-04-06T01:57:55.738Z,0.08
2023-04-06T02:00:26.968Z,0.06
2023-04-06T02:02:55.439Z,0.33
2023-04-06T02:05:24.082Z,0.48
2023-04-06T02:07:52.031Z,0.67
2023-04-06T02:10:22.382Z,1.00
2023-04-06T02:12:50.370Z,1.05
2023-04-06T02:15:18.944Z,1.06
2023-04-06T02:17:47.213Z,0.85
2023-04-06T02:20:15.578Z,0.88
2023-04-06T02:22:43.496Z,1.00
2023-04-06T02:25:11.690Z,1.03
2023-04-06T02:27:40.057Z,0.89
2023-04-06T02:30:08.550Z,0.85
2023-04-06T02:32:36.547Z,0.76
2023-04-06T02:35:05.924Z,0.69
2023-04-06T02:37:34.471Z,0.87
2023-04-06T02:40:02.187Z,0.72
2023-04-06T02:42:30.774Z,0.58
2023-04-06T02:44:59.150Z,0.83
2023-04-06T02:47:27.415Z,0.83
2023-04-06T02:49:55.196Z,0.76
2023-04-06T02:52:23.454Z,0.61
2023-04-06T02:54:51.300Z,0.73
2023-04-06T02:57:21.211Z,0.60
2023-04-06T02:59:49.447Z,0.51
2023-04-06T03:02:17.609Z,0.47
2023-04-06T03:04:45.653Z,0.33
2023-04-06T03:07:17.414Z,0.51
2023-04-06T03:09:47.319Z,0.64
2023-04-06T03:12:14.991Z,0.66
2023-04-06T03:14:43.687Z,0.46
2023-04-06T03:17:11.576Z,0.57
2023-04-06T03:19:39.982Z,0.55
2023-04-06T03:22:09.063Z,0.71
2023-04-06T03:24:36.865Z,0.50
2023-04-06T03:27:04.621Z,0.54
2023-04-06T03:29:33.062Z,0.37
2023-04-06T03:32:01.085Z,0.13
2023-04-06T03:34:30.785Z,0.18
2023-04-06T03:37:09.137Z,0.26
2023-04-06T03:39:38.495Z,0.22
2023-04-06T03:42:06.667Z,0.20
2023-04-06T03:44:34.434Z,0.24
2023-04-06T03:47:02.270Z,0.21
2023-04-06T03:49:30.300Z,0.17
2023-04-06T03:51:58.414Z,0.26
2023-04-06T03:54:26.136Z,0.40
2023-04-06T03:56:54.245Z,0.44
2023-04-06T03:59:27.789Z,0.45
2023-04-06T04:02:32.652Z,0.65
2023-04-06T04:05:01.292Z,0.39
2023-04-06T04:07:29.265Z,0.38
2023-04-06T04:09:58.825Z,0.46
2023-04-06T04:12:27.329Z,0.33
2023-04-06T04:14:55.276Z,0.31
2023-04-06T04:17:25.135Z,0.31
2023-04-06T04:19:53.417Z,0.38
2023-04-06T04:22:21.450Z,0.52
2023-04-06T04:24:50.004Z,0.52
2023-04-06T04:27:19.103Z,0.43
2023-04-06T04:29:52.769Z,0.36
2023-04-06T04:32:24.888Z,0.53
2023-04-06T04:34:53.072Z,0.40
2023-04-06T04:37:22.825Z,0.50
2023-04-06T04:39:50.966Z,0.51
2023-04-06T04:42:18.994Z,0.57
2023-04-06T04:44:47.579Z,0.56
2023-04-06T04:47:16.266Z,0.63
2023-04-06T04:49:44.480Z,0.72
2023-04-06T04:52:13.706Z,0.55
2023-04-06T04:54:46.061Z,0.73
2023-04-06T04:57:15.509Z,0.78
2023-04-06T04:59:44.320Z,0.72
2023-04-06T05:02:12.881Z,0.89
2023-04-06T05:04:44.681Z,1.09
2023-04-06T05:07:13.233Z,1.14
2023-04-06T05:09:42.104Z,1.29
2023-04-06T05:12:11.442Z,1.34
2023-04-06T05:14:39.735Z,1.36
2023-04-06T05:17:08.184Z,1.42
2023-04-06T05:19:36.302Z,1.52
2023-04-06T05:22:04.036Z,1.65
2023-04-06T05:24:33.942Z,1.66
2023-04-06T05:27:02.069Z,1.76
2023-04-06T05:29:32.813Z,1.76
2023-04-06T05:32:03.528Z,2.00
2023-04-06T05:34:32.131Z,2.13
2023-04-06T05:37:03.171Z,1.62
2023-04-06T05:39:32.182Z,1.92
2023-04-06T05:42:22.340Z,2.11
2023-04-06T05:48:20.635Z,2.32
2023-04-06T05:51:06.202Z,2.13
2023-04-06T05:54:00.920Z,2.47
2023-04-06T05:56:29.445Z,2.36
2023-04-06T05:58:57.611Z,1.96
2023-04-06T06:01:25.643Z,2.12
2023-04-06T06:03:53.749Z,2.56
2023-04-06T06:06:24.703Z,2.50
2023-04-06T06:08:54.036Z,2.53
2023-04-06T06:11:22.039Z,2.48
2023-04-06T06:13:50.227Z,2.85
2023-04-06T06:16:19.282Z,2.89
2023-04-06T06:18:48.032Z,3.01
2023-04-06T06:21:16.102Z,2.72
2023-04-06T06:23:46.724Z,2.79
2023-04-06T06:26:15.526Z,2.58
2023-04-06T06:28:44.698Z,2.74
2023-04-06T06:31:13.195Z,2.96
2023-04-06T06:33:41.788Z,2.55
2023-04-06T06:36:09.655Z,2.95
2023-04-06T06:38:37.928Z,3.06
2023-04-06T06:41:06.180Z,3.04
2023-04-06T06:43:34.833Z,2.96
2023-04-06T06:46:03.880Z,3.27
2023-04-06T06:48:31.801Z,3.38
2023-04-06T06:50:59.567Z,3.37
2023-04-06T06:53:27.709Z,3.30
2023-04-06T06:55:56.691Z,3.34
2023-04-06T06:58:24.735Z,3.16
2023-04-06T07:00:57.296Z,3.11
2023-04-06T07:03:25.491Z,3.09
2023-04-06T07:05:53.756Z,3.46
2023-04-06T07:08:22.478Z,3.48
2023-04-06T07:10:54.172Z,3.42
2023-04-06T07:13:22.199Z,3.65
2023-04-06T07:15:50.891Z,3.60
2023-04-06T07:18:21.957Z,3.69
2023-04-06T07:20:50.470Z,4.19
2023-04-06T07:23:18.324Z,4.16
2023-04-06T07:25:46.401Z,4.36
2023-04-06T07:28:14.511Z,4.21
2023-04-06T07:30:43.157Z,4.44
2023-04-06T07:33:11.501Z,4.73
2023-04-06T07:35:39.742Z,4.48
2023-04-06T07:38:07.721Z,4.57
2023-04-06T07:40:35.700Z,4.34
2023-04-06T07:43:06.256Z,4.50
2023-04-06T07:45:34.147Z,4.31
2023-04-06T07:48:02.019Z,4.53
2023-04-06T07:50:31.118Z,4.79
2023-04-06T07:52:59.009Z,4.80
2023-04-06T07:55:26.980Z,4.76
2023-04-06T07:57:54.981Z,4.73
2023-04-06T08:00:22.977Z,4.84
2023-04-06T08:02:51.235Z,5.06
2023-04-06T08:05:18.983Z,5.05
2023-04-06T08:07:46.686Z,5.17
2023-04-06T08:10:15.999Z,5.28
2023-04-06T08:12:43.731Z,5.44
2023-04-06T08:15:11.544Z,5.73
2023-04-06T08:17:39.661Z,5.75
2023-04-06T08:20:07.692Z,5.86
2023-04-06T08:22:35.491Z,5.86
2023-04-06T08:25:04.399Z,5.86
2023-04-06T08:27:32.215Z,5.71
2023-04-06T08:30:00.003Z,5.65
2023-04-06T08:32:28.064Z,5.73
2023-04-06T08:34:55.950Z,5.94
2023-04-06T08:37:24.062Z,5.60
2023-04-06T08:39:54.453Z,6.41
2023-04-06T08:42:22.868Z,6.22
2023-04-06T08:44:50.584Z,6.51
2023-04-06T08:47:19.058Z,6.31
2023-04-06T08:49:47.055Z,6.44
2023-04-06T08:52:16.712Z,6.60
2023-04-06T08:54:44.614Z,6.63
2023-04-06T08:57:12.728Z,6.62
2023-04-06T08:59:41.348Z,6.36
2023-04-06T09:02:17.051Z,6.52
2023-04-06T09:04:55.101Z,6.47
2023-04-06T09:07:23.157Z,6.41
2023-04-06T09:09:53.177Z,6.47
2023-04-06T09:12:27.975Z,6.69
2023-04-06T09:14:56.528Z,6.75
2023-04-06T09:17:25.885Z,6.70
2023-04-06T09:19:54.504Z,6.85
2023-04-06T09:22:22.698Z,6.69
2023-04-06T09:24:54.430Z,6.67
2023-04-06T09:27:36.989Z,6.73
2023-04-06T09:30:12.653Z,6.92
2023-04-06T09:32:50.329Z,6.78
2023-04-06T09:35:19.093Z,6.81
2023-04-06T09:37:48.226Z,7.25
2023-04-06T09:40:16.232Z,7.22
2023-04-06T09:42:46.893Z,7.30
2023-04-06T09:45:15.222Z,7.12
2023-04-06T09:47:46.897Z,7.39
2023-04-06T09:50:15.922Z,7.27
2023-04-06T09:52:48.454Z,7.32
2023-04-06T09:55:27.191Z,7.40
2023-04-06T09:58:07.683Z,7.88
2023-04-06T10:00:45.268Z,7.78
2023-04-06T10:03:33.820Z,7.54
2023-04-06T10:06:05.216Z,7.51
2023-04-06T10:08:34.385Z,7.58
2023-04-06T10:11:03.216Z,7.61
2023-04-06T10:13:31.357Z,7.72
2023-04-06T10:16:02.267Z,7.62
2023-04-06T10:18:32.662Z,7.84
2023-04-06T10:21:10.349Z,7.72
2023-04-06T10:23:46.629Z,7.93
2023-04-06T10:26:20.918Z,7.97
2023-04-06T10:28:49.732Z,8.04
2023-04-06T10:31:27.855Z,7.98
2023-04-06T10:34:02.676Z,7.98
2023-04-06T10:36:34.826Z,7.80
2023-04-06T10:39:05.915Z,8.03
2023-04-06T10:41:35.890Z,8.46
2023-04-06T10:44:04.061Z,8.31
2023-04-06T10:46:33.789Z,8.27
2023-04-06T10:49:12.376Z,7.78
2023-04-06T10:51:40.359Z,8.04
2023-04-06T10:54:08.552Z,7.97
2023-04-06T10:56:38.190Z,8.10
2023-04-06T10:59:06.960Z,8.36
2023-04-06T11:01:35.333Z,8.37
2023-04-06T11:04:04.002Z,8.20
2023-04-06T11:06:32.115Z,7.93
2023-04-06T11:09:00.681Z,8.05
2023-04-06T11:11:28.447Z,8.19
2023-04-06T11:14:00.697Z,8.43
2023-04-06T11:16:31.042Z,8.37
2023-04-06T11:19:03.535Z,8.37
2023-04-06T11:21:37.172Z,8.21
2023-04-06T11:24:12.591Z,8.02
2023-04-06T11:26:42.470Z,8.30
2023-04-06T11:29:10.747Z,8.61
2023-04-06T11:31:40.619Z,8.27
2023-04-06T11:34:18.196Z,8.16
2023-04-06T11:36:47.024Z,7.87
2023-04-06T11:39:22.425Z,8.67
2023-04-06T11:41:51.881Z,8.38
2023-04-06T11:44:50.977Z,8.47
2023-04-06T11:47:18.686Z,8.59
2023-04-06T11:49:47.681Z,7.96
2023-04-06T11:52:24.750Z,8.02
2023-04-06T11:54:53.789Z,8.28
2023-04-06T11:57:22.764Z,7.99
2023-04-06T11:59:50.455Z,8.23
2023-04-06T12:02:19.068Z,8.28
2023-04-06T12:04:47.167Z,8.34
2023-04-06T12:07:15.174Z,8.27
2023-04-06T12:09:44.566Z,8.28
2023-04-06T12:12:12.600Z,8.27
2023-04-06T12:14:40.569Z,8.40
2023-04-06T12:17:08.542Z,8.48
2023-04-06T12:19:36.579Z,8.24
2023-04-06T12:22:04.363Z,7.90
2023-04-06T12:24:32.103Z,7.97
2023-04-06T12:27:09.505Z,7.69
2023-04-06T12:29:39.180Z,7.56
2023-04-06T12:32:07.474Z,7.40
2023-04-06T12:34:35.955Z,7.61
2023-04-06T12:37:03.861Z,7.66
2023-04-06T12:39:31.847Z,7.94
2023-04-06T12:41:59.829Z,8.01
2023-04-06T12:44:27.863Z,8.06
2023-04-06T12:46:55.954Z,8.07
2023-04-06T12:49:23.754Z,8.09
2023-04-06T12:51:51.556Z,8.22
2023-04-06T12:54:19.581Z,7.97
2023-04-06T12:56:47.343Z,7.63
2023-04-06T12:59:15.181Z,7.86
2023-04-06T13:01:43.744Z,7.57
2023-04-06T13:04:11.451Z,7.60
2023-04-06T13:06:39.122Z,7.87
2023-04-06T13:09:07.213Z,8.01
2023-04-06T13:11:34.970Z,7.83
2023-04-06T13:14:02.942Z,7.74
2023-04-06T13:16:31.056Z,7.43
2023-04-06T13:18:58.805Z,7.14
2023-04-06T13:21:26.539Z,7.43
2023-04-06T13:23:54.601Z,7.56
2023-04-06T13:26:22.289Z,7.73
2023-04-06T13:28:50.169Z,7.69
2023-04-06T13:31:18.335Z,7.86
2023-04-06T13:33:46.059Z,7.88
2023-04-06T13:36:14.687Z,8.04
2023-04-06T13:38:44.862Z,8.28
2023-04-06T13:41:21.880Z,8.13
2023-04-06T13:43:50.232Z,7.93
2023-04-06T13:46:18.170Z,8.45
2023-04-06T13:48:46.163Z,8.04
2023-04-06T13:51:15.349Z,8.31
2023-04-06T13:53:43.415Z,8.27
2023-04-06T13:56:11.138Z,8.23
2023-04-06T13:58:39.176Z,8.38
2023-04-06T14:01:08.627Z,8.01
2023-04-06T14:03:37.413Z,8.34
2023-04-06T14:06:20.734Z,8.32
2023-04-06T14:08:59.418Z,7.69
2023-04-06T14:11:27.395Z,7.83
2023-04-06T14:13:57.976Z,8.05
2023-04-06T14:16:26.529Z,7.85
2023-04-06T14:19:07.126Z,7.66
2023-04-06T14:21:35.354Z,7.72
2023-04-06T14:24:03.007Z,7.03
2023-04-06T14:26:30.583Z,7.12
2023-04-06T14:28:59.981Z,7.32
2023-04-06T14:31:27.865Z,7.20
2023-04-06T14:33:55.565Z,7.22
2023-04-06T14:36:23.985Z,7.17
2023-04-06T14:38:51.787Z,7.09
2023-04-06T14:41:20.720Z,7.19
2023-04-06T14:43:48.942Z,7.43
2023-04-06T14:46:16.822Z,7.16
2023-04-06T14:48:45.256Z,7.51
2023-04-06T14:51:13.651Z,7.25
2023-04-06T14:53:41.928Z,7.54
2023-04-06T14:56:09.725Z,7.81
2023-04-06T14:58:37.808Z,7.69
2023-04-06T15:01:05.775Z,7.39
2023-04-06T15:03:33.717Z,7.57
2023-04-06T15:06:04.078Z,7.64
2023-04-06T15:08:31.838Z,7.68
2023-04-06T15:11:01.580Z,7.50
2023-04-06T15:13:29.243Z,7.57
2023-04-06T15:15:58.695Z,7.60
2023-04-06T15:18:28.738Z,7.62
2023-04-06T15:20:56.430Z,7.58
2023-04-06T15:23:24.354Z,7.58
2023-04-06T15:25:52.687Z,7.62
2023-04-06T15:28:20.323Z,7.62
2023-04-06T15:30:48.073Z,7.64
2023-04-06T15:33:15.992Z,7.65
2023-04-06T15:35:44.077Z,7.73
2023-04-06T15:38:11.877Z,7.60
2023-04-06T15:40:44.361Z,7.77
2023-04-06T15:43:12.844Z,7.94
2023-04-06T15:45:41.302Z,7.98
2023-04-06T15:48:09.423Z,7.89
2023-04-06T15:50:37.358Z,7.85
2023-04-06T15:53:08.003Z,7.77
2023-04-06T15:55:35.694Z,7.64
2023-04-06T15:58:03.397Z,7.36
2023-04-06T16:00:31.630Z,7.52
2023-04-06T16:02:59.760Z,7.68
2023-04-06T16:05:31.085Z,7.35
2023-04-06T16:08:01.335Z,7.41
2023-04-06T16:10:29.488Z,7.39
2023-04-06T16:12:57.128Z,7.38
2023-04-06T16:15:28.111Z,7.01
2023-04-06T16:17:55.740Z,7.05
2023-04-06T16:20:23.556Z,7.06
2023-04-06T16:22:51.545Z,7.08
2023-04-06T16:25:19.314Z,7.01
2023-04-06T16:27:47.045Z,6.88
2023-04-06T16:30:15.276Z,7.03
2023-04-06T16:32:44.579Z,6.91
2023-04-06T16:35:12.628Z,6.74
2023-04-06T16:37:40.848Z,6.63
2023-04-06T16:40:09.508Z,6.58
2023-04-06T16:42:39.317Z,6.77
2023-04-06T16:45:07.627Z,6.27
2023-04-06T16:47:35.338Z,5.96
2023-04-06T16:50:06.001Z,6.31
2023-04-06T16:52:35.586Z,6.33
2023-04-06T16:55:03.513Z,6.28
2023-04-06T16:57:31.498Z,6.13
2023-04-06T16:59:59.959Z,6.18
2023-04-06T17:02:27.779Z,6.19
2023-04-06T17:04:55.507Z,6.33
2023-04-06T17:07:23.508Z,6.13
2023-04-06T17:09:52.238Z,6.44
2023-04-06T17:12:19.901Z,6.32
2023-04-06T17:14:47.918Z,6.28
2023-04-06T17:17:15.610Z,5.92
2023-04-06T17:19:46.786Z,5.81
2023-04-06T17:22:14.833Z,5.84
2023-04-06T17:24:47.126Z,5.68
2023-04-06T17:27:15.448Z,5.86
2023-04-06T17:29:43.335Z,5.94
2023-04-06T17:32:11.149Z,6.00
2023-04-06T17:34:39.503Z,6.25
2023-04-06T17:37:07.121Z,6.04
2023-04-06T17:39:34.799Z,6.10
2023-04-06T17:42:03.698Z,5.47
2023-04-06T17:44:31.537Z,5.08
2023-04-06T17:47:01.735Z,4.92
2023-04-06T17:49:29.662Z,5.00
2023-04-06T17:51:57.279Z,4.91
2023-04-06T17:54:24.955Z,5.07
2023-04-06T17:56:53.354Z,5.00
2023-04-06T17:59:21.133Z,4.88
2023-04-06T18:01:48.996Z,4.94
2023-04-06T18:04:17.077Z,5.03
2023-04-06T18:06:44.709Z,5.00
2023-04-06T18:09:12.620Z,5.17
2023-04-06T18:11:43.098Z,5.23
2023-04-06T18:14:11.100Z,5.23
2023-04-06T18:16:38.775Z,4.84
2023-04-06T18:19:06.919Z,4.82
2023-04-06T18:21:35.642Z,4.96
2023-04-06T18:24:05.432Z,4.72
2023-04-06T18:26:44.846Z,4.71
2023-04-06T18:29:12.516Z,4.65
2023-04-06T18:31:40.585Z,4.40
2023-04-06T18:34:08.421Z,4.26
2023-04-06T18:36:36.179Z,4.35
2023-04-06T18:39:04.221Z,4.28
2023-04-06T18:41:31.995Z,4.00
2023-04-06T18:44:00.187Z,3.89
2023-04-06T18:46:28.174Z,3.86
2023-04-06T18:48:56.282Z,3.65
2023-04-06T18:51:28.834Z,3.92
2023-04-06T18:53:57.118Z,3.67
2023-04-06T18:56:25.096Z,3.65
2023-04-06T18:58:52.820Z,3.66
2023-04-06T19:01:24.891Z,3.79
2023-04-06T19:03:54.235Z,3.87
2023-04-06T19:06:23.268Z,3.67
2023-04-06T19:08:51.133Z,3.70
2023-04-06T19:11:20.012Z,3.62
2023-04-06T19:13:48.276Z,3.77
2023-04-06T19:16:16.638Z,3.59
2023-04-06T19:18:47.424Z,3.57
2023-04-06T19:21:16.260Z,3.60
2023-04-06T19:23:46.175Z,3.22
2023-04-06T19:26:14.410Z,3.50
2023-04-06T19:28:43.257Z,3.25
2023-04-06T19:31:12.366Z,3.27
2023-04-06T19:33:40.530Z,3.18
2023-04-06T19:36:11.681Z,3.34
2023-04-06T19:38:39.922Z,3.31
2023-04-06T19:41:10.703Z,3.21
2023-04-06T19:43:38.433Z,3.47
2023-04-06T19:46:06.851Z,3.71
2023-04-06T19:48:35.100Z,3.44
2023-04-06T19:51:02.881Z,3.56
2023-04-06T19:53:30.504Z,3.50
2023-04-06T19:55:58.536Z,3.61
2023-04-06T19:58:27.458Z,3.49
2023-04-06T20:00:55.520Z,3.38
2023-04-06T20:03:23.736Z,3.58
2023-04-06T20:05:51.518Z,3.60
2023-04-06T20:08:19.285Z,3.64
2023-04-06T20:10:47.292Z,3.60
2023-04-06T20:13:14.989Z,3.70
2023-04-06T20:15:42.934Z,3.48
2023-04-06T20:18:11.108Z,3.14
2023-04-06T20:20:38.821Z,3.29
2023-04-06T20:23:06.542Z,3.16
2023-04-06T20:25:34.471Z,3.30
2023-04-06T20:28:02.162Z,3.30
2023-04-06T20:30:29.853Z,3.33
2023-04-06T20:32:57.828Z,3.37
2023-04-06T20:35:26.015Z,3.75
2023-04-06T20:37:53.765Z,3.96
2023-04-06T20:40:21.662Z,4.03
2023-04-06T20:42:49.626Z,4.10
2023-04-06T20:45:17.455Z,3.95
2023-04-06T20:47:45.431Z,4.21
2023-04-06T20:50:13.476Z,3.98
2023-04-06T20:52:41.362Z,3.86
2023-04-06T20:55:09.537Z,3.97
2023-04-06T20:57:37.154Z,4.04
2023-04-06T21:00:05.362Z,3.93
2023-04-06T21:02:33.777Z,3.93
2023-04-06T21:05:01.636Z,4.03
2023-04-06T21:07:30.375Z,4.02
2023-04-06T21:10:02.645Z,3.88
2023-04-06T21:12:30.358Z,4.16
2023-04-06T21:14:58.303Z,3.94
2023-04-06T21:17:25.960Z,4.01
2023-04-06T21:19:53.597Z,4.10
2023-04-06T21:22:22.649Z,4.01
2023-04-06T21:24:50.453Z,4.00
2023-04-06T21:27:18.098Z,4.16
2023-04-06T21:29:46.024Z,4.07
2023-04-06T21:32:13.773Z,4.11
2023-04-06T21:34:42.275Z,4.08
2023-04-06T21:37:10.182Z,4.15
2023-04-06T21:39:37.900Z,4.16
2023-04-06T21:42:05.778Z,4.09
2023-04-06T21:44:34.150Z,4.29
2023-04-06T21:47:01.881Z,4.15
2023-04-06T21:49:30.408Z,4.11
2023-04-06T21:51:58.467Z,4.12
2023-04-06T21:54:26.154Z,4.08
2023-04-06T21:56:53.776Z,4.08
2023-04-06T21:59:21.741Z,4.23
2023-04-06T22:01:49.398Z,3.89
2023-04-06T22:04:17.841Z,3.93
2023-04-06T22:06:45.814Z,4.12
2023-04-06T22:09:13.431Z,4.06
2023-04-06T22:11:41.677Z,3.95
2023-04-06T22:14:09.260Z,3.86
2023-04-06T22:16:36.871Z,3.98
2023-04-06T22:19:04.897Z,3.95
2023-04-06T22:21:32.725Z,3.83
2023-04-06T22:24:00.389Z,3.97
2023-04-06T22:26:28.347Z,4.01
2023-04-06T22:28:56.211Z,4.02
2023-04-06T22:31:24.048Z,3.99
2023-04-06T22:33:52.073Z,3.97
2023-04-06T22:36:19.677Z,4.02
2023-04-06T22:38:47.669Z,4.32
2023-04-06T22:41:16.843Z,4.03
2023-04-06T22:43:44.550Z,4.21
2023-04-06T22:46:12.225Z,4.22
2023-04-06T22:48:40.158Z,4.11
2023-04-06T22:51:08.194Z,4.29
2023-04-06T22:53:36.140Z,4.30
2023-04-06T22:56:04.115Z,4.25
2023-04-06T22:58:31.736Z,4.06
2023-04-06T23:00:59.498Z,4.14
2023-04-06T23:03:27.838Z,4.12
2023-04-06T23:05:55.691Z,4.11
2023-04-06T23:08:23.452Z,4.11
2023-04-06T23:10:51.443Z,3.96
2023-04-06T23:13:19.330Z,3.94
2023-04-06T23:15:46.967Z,3.95
2023-04-06T23:18:14.875Z,4.05
2023-04-06T23:20:42.673Z,4.26
2023-04-06T23:23:10.325Z,4.22
2023-04-06T23:25:38.460Z,4.19
2023-04-06T23:28:06.168Z,3.85
2023-04-06T23:30:34.001Z,3.66
2023-04-06T23:33:01.997Z,3.68
2023-04-06T23:35:30.106Z,3.66
2023-04-06T23:37:57.704Z,3.45
2023-04-06T23:40:25.874Z,3.29
2023-04-06T23:42:53.458Z,3.37
2023-04-06T23:45:21.330Z,3.68
2023-04-06T23:47:49.527Z,3.98
2023-04-06T23:50:19.846Z,4.05
2023-04-06T23:52:47.535Z,3.66
2023-04-06T23:55:15.848Z,3.85
2023-04-06T23:57:43.886Z,3.88
